UTA281 USSS-UWWW
Flight info
| Callsign | UTA281 |
|---|---|
| Flight time | 1h 31m |
| Altitude | 36000 |
| Route | UMTEK6D UMTEK M864 AGNOK T796 NUTNO T690 DOGUR DOGUR8M |
| Aircraft | B738/M-SDE2E3FGHIRWXY/LB1 |
Departure
| Time | 2026-04-27 12:03 |
|---|---|
| Airport | Koltsovo Airport (USSS) |
Arrival
| Time | 2026-04-27 13:34 |
|---|---|
| Airport | Kurumoch International Airport (UWWW) |
| Time | Latitude | Longitude | Altitude | Speed | Heading |
|---|---|---|---|---|---|
| 2026-04-27 11:39 | 56.74933 | 60.80047 | 773 ft | 0 kts | 360° |
| 2026-04-27 11:49 | 56.74930 | 60.80047 | 774 ft | 3 kts | 360° |
| 2026-04-27 11:49 | 56.74904 | 60.80047 | 774 ft | 4 kts | 360° |
| 2026-04-27 11:49 | 56.74880 | 60.80047 | 774 ft | 2 kts | 359° |
| 2026-04-27 11:49 | 56.74861 | 60.80038 | 774 ft | 4 kts | 62° |
| 2026-04-27 11:50 | 56.74854 | 60.79992 | 774 ft | 4 kts | 88° |
| 2026-04-27 11:50 | 56.74854 | 60.79946 | 774 ft | 4 kts | 89° |
| 2026-04-27 11:50 | 56.74853 | 60.79931 | 774 ft | 0 kts | 89° |
| 2026-04-27 11:53 | 56.74853 | 60.79932 | 774 ft | 1 kts | 90° |
| 2026-04-27 11:53 | 56.74854 | 60.79957 | 774 ft | 4 kts | 89° |
| 2026-04-27 11:53 | 56.74854 | 60.80024 | 774 ft | 4 kts | 90° |
| 2026-04-27 11:54 | 56.74854 | 60.80087 | 774 ft | 5 kts | 90° |
| 2026-04-27 11:54 | 56.74854 | 60.80157 | 774 ft | 5 kts | 90° |
| 2026-04-27 11:54 | 56.74854 | 60.80225 | 774 ft | 5 kts | 90° |
| 2026-04-27 11:54 | 56.74854 | 60.80291 | 774 ft | 5 kts | 90° |
| 2026-04-27 11:55 | 56.74854 | 60.80357 | 774 ft | 5 kts | 90° |
| 2026-04-27 11:55 | 56.74854 | 60.80422 | 774 ft | 5 kts | 90° |
| 2026-04-27 11:55 | 56.74854 | 60.80485 | 774 ft | 5 kts | 90° |
| 2026-04-27 11:55 | 56.74853 | 60.80563 | 774 ft | 8 kts | 90° |
| 2026-04-27 11:56 | 56.74854 | 60.80677 | 774 ft | 10 kts | 90° |
| 2026-04-27 11:56 | 56.74853 | 60.80822 | 774 ft | 12 kts | 90° |
| 2026-04-27 11:56 | 56.74854 | 60.80968 | 774 ft | 11 kts | 88° |
| 2026-04-27 11:56 | 56.74863 | 60.81104 | 774 ft | 12 kts | 89° |
| 2026-04-27 11:57 | 56.74864 | 60.81201 | 774 ft | 8 kts | 89° |
| 2026-04-27 11:57 | 56.74863 | 60.81300 | 774 ft | 8 kts | 91° |
| 2026-04-27 11:57 | 56.74863 | 60.81396 | 774 ft | 7 kts | 90° |
| 2026-04-27 11:57 | 56.74863 | 60.81488 | 774 ft | 7 kts | 90° |
| 2026-04-27 11:58 | 56.74863 | 60.81576 | 774 ft | 7 kts | 91° |
| 2026-04-27 11:58 | 56.74862 | 60.81664 | 774 ft | 7 kts | 91° |
| 2026-04-27 11:58 | 56.74862 | 60.81749 | 774 ft | 7 kts | 90° |
| 2026-04-27 11:58 | 56.74862 | 60.81757 | 774 ft | 1 kts | 91° |
| 2026-04-27 11:59 | 56.74862 | 60.81780 | 774 ft | 3 kts | 89° |
| 2026-04-27 11:59 | 56.74857 | 60.81851 | 774 ft | 8 kts | 106° |
| 2026-04-27 11:59 | 56.74829 | 60.81966 | 774 ft | 12 kts | 116° |
| 2026-04-27 11:59 | 56.74790 | 60.82101 | 774 ft | 14 kts | 117° |
| 2026-04-27 12:00 | 56.74743 | 60.82194 | 774 ft | 11 kts | 161° |
| 2026-04-27 12:00 | 56.74659 | 60.82201 | 774 ft | 13 kts | 179° |
| 2026-04-27 12:00 | 56.74555 | 60.82201 | 773 ft | 17 kts | 180° |
| 2026-04-27 12:00 | 56.74431 | 60.82197 | 774 ft | 19 kts | 184° |
| 2026-04-27 12:01 | 56.74298 | 60.82178 | 774 ft | 18 kts | 182° |
| 2026-04-27 12:01 | 56.74168 | 60.82161 | 774 ft | 20 kts | 184° |
| 2026-04-27 12:01 | 56.74058 | 60.82248 | 774 ft | 18 kts | 101° |
| 2026-04-27 12:01 | 56.74052 | 60.82489 | 774 ft | 20 kts | 85° |
| 2026-04-27 12:02 | 56.74090 | 60.82716 | 774 ft | 15 kts | 84° |
| 2026-04-27 12:02 | 56.74045 | 60.82772 | 774 ft | 9 kts | 231° |
| 2026-04-27 12:02 | 56.74042 | 60.82673 | 774 ft | 7 kts | 274° |
| 2026-04-27 12:02 | 56.74058 | 60.82271 | 774 ft | 75 kts | 274° |
| 2026-04-27 12:03 | 56.74116 | 60.80818 | 774 ft | 154 kts | 274° |
| 2026-04-27 12:03 | 56.74212 | 60.78549 | 1145 ft | 190 kts | 272° |
| 2026-04-27 12:03 | 56.74335 | 60.76139 | 2166 ft | 187 kts | 269° |
| 2026-04-27 12:03 | 56.74409 | 60.73762 | 3112 ft | 196 kts | 267° |
| 2026-04-27 12:04 | 56.74478 | 60.71207 | 3624 ft | 211 kts | 270° |
| 2026-04-27 12:04 | 56.74580 | 60.68385 | 3845 ft | 232 kts | 270° |
| 2026-04-27 12:04 | 56.74694 | 60.65407 | 4394 ft | 236 kts | 270° |
| 2026-04-27 12:04 | 56.74841 | 60.62410 | 4974 ft | 241 kts | 276° |
| 2026-04-27 12:05 | 56.75489 | 60.59528 | 5447 ft | 254 kts | 292° |
| 2026-04-27 12:05 | 56.75920 | 60.56367 | 5845 ft | 263 kts | 272° |
| 2026-04-27 12:05 | 56.76093 | 60.53029 | 6613 ft | 266 kts | 272° |
| 2026-04-27 12:05 | 56.76295 | 60.49674 | 7417 ft | 268 kts | 273° |
| 2026-04-27 12:06 | 56.76515 | 60.46275 | 8218 ft | 271 kts | 274° |
| 2026-04-27 12:06 | 56.76750 | 60.42839 | 9034 ft | 275 kts | 274° |
| 2026-04-27 12:06 | 56.76995 | 60.39364 | 9839 ft | 278 kts | 274° |
| 2026-04-27 12:06 | 56.77249 | 60.35826 | 10492 ft | 289 kts | 276° |
| 2026-04-27 12:07 | 56.77535 | 60.32028 | 10684 ft | 315 kts | 276° |
| 2026-04-27 12:07 | 56.77831 | 60.27956 | 10876 ft | 339 kts | 276° |
| 2026-04-27 12:07 | 56.78143 | 60.23595 | 11259 ft | 353 kts | 276° |
| 2026-04-27 12:07 | 56.78464 | 60.19109 | 11920 ft | 358 kts | 276° |
| 2026-04-27 12:08 | 56.78789 | 60.14587 | 12697 ft | 361 kts | 276° |
| 2026-04-27 12:08 | 56.79094 | 60.10036 | 13482 ft | 363 kts | 275° |
| 2026-04-27 12:08 | 56.79381 | 60.05439 | 14248 ft | 366 kts | 275° |
| 2026-04-27 12:08 | 56.79660 | 60.00807 | 15013 ft | 370 kts | 275° |
| 2026-04-27 12:09 | 56.79940 | 59.96129 | 15771 ft | 373 kts | 274° |
| 2026-04-27 12:09 | 56.80222 | 59.91398 | 16495 ft | 376 kts | 274° |
| 2026-04-27 12:09 | 56.80505 | 59.86632 | 17207 ft | 380 kts | 274° |
| 2026-04-27 12:09 | 56.80790 | 59.81827 | 17886 ft | 383 kts | 274° |
| 2026-04-27 12:10 | 56.81075 | 59.76973 | 18574 ft | 385 kts | 274° |
| 2026-04-27 12:10 | 56.81360 | 59.72098 | 19235 ft | 388 kts | 274° |
| 2026-04-27 12:10 | 56.81647 | 59.67177 | 19869 ft | 391 kts | 274° |
| 2026-04-27 12:10 | 56.81933 | 59.62231 | 20478 ft | 394 kts | 274° |
| 2026-04-27 12:11 | 56.82220 | 59.57244 | 21091 ft | 396 kts | 274° |
| 2026-04-27 12:11 | 56.82506 | 59.52227 | 21669 ft | 398 kts | 274° |
| 2026-04-27 12:11 | 56.82790 | 59.47185 | 22228 ft | 400 kts | 274° |
| 2026-04-27 12:11 | 56.83071 | 59.42182 | 22738 ft | 403 kts | 274° |
| 2026-04-27 12:12 | 56.83356 | 59.37065 | 23237 ft | 406 kts | 274° |
| 2026-04-27 12:12 | 56.83639 | 59.31929 | 23765 ft | 408 kts | 274° |
| 2026-04-27 12:12 | 56.83921 | 59.26761 | 24261 ft | 410 kts | 274° |
| 2026-04-27 12:12 | 56.84202 | 59.21559 | 24691 ft | 413 kts | 274° |
| 2026-04-27 12:13 | 56.84489 | 59.16242 | 25118 ft | 416 kts | 274° |
| 2026-04-27 12:13 | 56.84769 | 59.11044 | 25567 ft | 418 kts | 274° |
| 2026-04-27 12:13 | 56.85042 | 59.05747 | 26007 ft | 419 kts | 273° |
| 2026-04-27 12:13 | 56.85214 | 59.00422 | 26395 ft | 421 kts | 271° |
| 2026-04-27 12:14 | 56.85322 | 58.95064 | 26782 ft | 423 kts | 271° |
| 2026-04-27 12:14 | 56.85405 | 58.89694 | 27167 ft | 424 kts | 271° |
| 2026-04-27 12:14 | 56.85482 | 58.84283 | 27520 ft | 426 kts | 270° |
| 2026-04-27 12:14 | 56.85560 | 58.78868 | 27886 ft | 428 kts | 270° |
| 2026-04-27 12:15 | 56.85643 | 58.73421 | 28231 ft | 430 kts | 270° |
| 2026-04-27 12:15 | 56.85728 | 58.67957 | 28597 ft | 430 kts | 270° |
| 2026-04-27 12:15 | 56.85815 | 58.62517 | 29114 ft | 427 kts | 270° |
| 2026-04-27 12:15 | 56.85901 | 58.57111 | 29638 ft | 424 kts | 270° |
| 2026-04-27 12:16 | 56.85986 | 58.51742 | 30086 ft | 422 kts | 269° |
| 2026-04-27 12:16 | 56.86068 | 58.46386 | 30548 ft | 420 kts | 270° |
| 2026-04-27 12:16 | 56.86146 | 58.41063 | 30976 ft | 419 kts | 269° |
| 2026-04-27 12:16 | 56.86222 | 58.35750 | 31360 ft | 418 kts | 270° |
| 2026-04-27 12:17 | 56.86297 | 58.30446 | 31761 ft | 417 kts | 270° |
| 2026-04-27 12:17 | 56.86368 | 58.25155 | 32129 ft | 416 kts | 270° |
| 2026-04-27 12:17 | 56.86437 | 58.19873 | 32457 ft | 416 kts | 270° |
| 2026-04-27 12:17 | 56.86504 | 58.14580 | 32820 ft | 415 kts | 270° |
| 2026-04-27 12:18 | 56.86568 | 58.09319 | 33209 ft | 414 kts | 270° |
| 2026-04-27 12:18 | 56.86631 | 58.04073 | 33595 ft | 412 kts | 269° |
| 2026-04-27 12:18 | 56.86691 | 57.98851 | 33932 ft | 411 kts | 269° |
| 2026-04-27 12:18 | 56.86748 | 57.93611 | 34224 ft | 411 kts | 269° |
| 2026-04-27 12:19 | 56.86803 | 57.88385 | 34508 ft | 412 kts | 268° |
| 2026-04-27 12:19 | 56.86855 | 57.83157 | 34771 ft | 412 kts | 269° |
| 2026-04-27 12:19 | 56.86905 | 57.77912 | 35020 ft | 413 kts | 268° |
| 2026-04-27 12:19 | 56.86953 | 57.72668 | 35274 ft | 413 kts | 269° |
| 2026-04-27 12:20 | 56.86998 | 57.67404 | 35532 ft | 413 kts | 269° |
| 2026-04-27 12:20 | 56.87041 | 57.62219 | 35781 ft | 414 kts | 268° |
| 2026-04-27 12:20 | 56.87084 | 57.56888 | 35965 ft | 415 kts | 269° |
| 2026-04-27 12:21 | 56.87159 | 57.46243 | 35962 ft | 420 kts | 268° |
| 2026-04-27 12:21 | 56.87227 | 57.35688 | 35943 ft | 415 kts | 269° |
| 2026-04-27 12:22 | 56.87285 | 57.25205 | 35947 ft | 412 kts | 268° |
| 2026-04-27 12:22 | 56.87333 | 57.14731 | 35947 ft | 411 kts | 268° |
| 2026-04-27 12:23 | 56.87372 | 57.04279 | 35932 ft | 412 kts | 267° |
| 2026-04-27 12:23 | 56.87401 | 56.93807 | 35934 ft | 412 kts | 268° |
| 2026-04-27 12:24 | 56.87422 | 56.83335 | 35934 ft | 413 kts | 267° |
| 2026-04-27 12:24 | 56.87433 | 56.72835 | 35935 ft | 414 kts | 268° |
| 2026-04-27 12:25 | 56.87432 | 56.62301 | 35918 ft | 415 kts | 267° |
| 2026-04-27 12:25 | 56.87423 | 56.51759 | 35922 ft | 415 kts | 267° |
| 2026-04-27 12:26 | 56.87422 | 56.41186 | 35916 ft | 416 kts | 267° |
| 2026-04-27 12:26 | 56.87529 | 56.30592 | 35914 ft | 417 kts | 268° |
| 2026-04-27 12:27 | 56.87620 | 56.21784 | 35917 ft | 417 kts | 268° |
| 2026-04-27 12:27 | 56.87696 | 56.11173 | 35905 ft | 418 kts | 268° |
| 2026-04-27 12:28 | 56.87761 | 56.00556 | 35894 ft | 418 kts | 267° |
| 2026-04-27 12:28 | 56.87330 | 55.90071 | 35921 ft | 410 kts | 255° |
| 2026-04-27 12:29 | 56.85475 | 55.80281 | 35867 ft | 407 kts | 245° |
| 2026-04-27 12:29 | 56.83267 | 55.70740 | 35852 ft | 408 kts | 246° |
| 2026-04-27 12:30 | 56.81058 | 55.61204 | 35848 ft | 407 kts | 245° |
| 2026-04-27 12:30 | 56.78855 | 55.51696 | 35857 ft | 407 kts | 245° |
| 2026-04-27 12:31 | 56.76648 | 55.42202 | 35851 ft | 407 kts | 245° |
| 2026-04-27 12:31 | 56.74430 | 55.32705 | 35846 ft | 407 kts | 245° |
| 2026-04-27 12:32 | 56.72209 | 55.23227 | 35843 ft | 407 kts | 244° |
| 2026-04-27 12:32 | 56.69983 | 55.13772 | 35841 ft | 407 kts | 245° |
| 2026-04-27 12:33 | 56.67745 | 55.04321 | 35838 ft | 406 kts | 245° |
| 2026-04-27 12:33 | 56.65506 | 54.94896 | 35827 ft | 406 kts | 244° |
| 2026-04-27 12:34 | 56.63263 | 54.85490 | 35834 ft | 406 kts | 244° |
| 2026-04-27 12:34 | 56.61009 | 54.76090 | 35823 ft | 406 kts | 243° |
| 2026-04-27 12:35 | 56.58750 | 54.66703 | 35822 ft | 406 kts | 244° |
| 2026-04-27 12:35 | 56.56499 | 54.57398 | 35812 ft | 406 kts | 243° |
| 2026-04-27 12:36 | 56.54224 | 54.48043 | 35816 ft | 406 kts | 243° |
| 2026-04-27 12:36 | 56.51940 | 54.38705 | 35802 ft | 406 kts | 244° |
| 2026-04-27 12:37 | 56.49654 | 54.29373 | 35797 ft | 405 kts | 243° |
| 2026-04-27 12:37 | 56.47366 | 54.20057 | 35791 ft | 405 kts | 243° |
| 2026-04-27 12:38 | 56.45066 | 54.10758 | 35782 ft | 404 kts | 243° |
| 2026-04-27 12:38 | 56.42759 | 54.01488 | 35787 ft | 404 kts | 243° |
| 2026-04-27 12:39 | 56.40458 | 53.92220 | 35791 ft | 404 kts | 243° |
| 2026-04-27 12:39 | 56.38164 | 53.82958 | 35780 ft | 404 kts | 242° |
| 2026-04-27 12:40 | 56.35857 | 53.73726 | 35794 ft | 405 kts | 243° |
| 2026-04-27 12:40 | 56.34696 | 53.69091 | 35961 ft | 407 kts | 243° |
| 2026-04-27 12:40 | 56.33532 | 53.64449 | 36259 ft | 406 kts | 242° |
| 2026-04-27 12:40 | 56.32371 | 53.59839 | 36539 ft | 405 kts | 242° |
| 2026-04-27 12:41 | 56.31196 | 53.55236 | 36817 ft | 403 kts | 242° |
| 2026-04-27 12:41 | 56.30026 | 53.50690 | 37266 ft | 398 kts | 242° |
| 2026-04-27 12:41 | 56.28864 | 53.46190 | 37607 ft | 395 kts | 242° |
| 2026-04-27 12:41 | 56.27705 | 53.41712 | 37737 ft | 397 kts | 241° |
| 2026-04-27 12:42 | 56.26557 | 53.37300 | 37743 ft | 400 kts | 241° |
| 2026-04-27 12:42 | 56.24167 | 53.28152 | 37743 ft | 408 kts | 241° |
| 2026-04-27 12:43 | 56.21734 | 53.18881 | 37745 ft | 411 kts | 241° |
| 2026-04-27 12:43 | 56.19289 | 53.09566 | 37708 ft | 413 kts | 242° |
| 2026-04-27 12:44 | 56.16833 | 53.00252 | 37701 ft | 413 kts | 241° |
| 2026-04-27 12:44 | 56.14372 | 52.90956 | 37691 ft | 413 kts | 240° |
| 2026-04-27 12:45 | 56.11950 | 52.81868 | 37688 ft | 412 kts | 240° |
| 2026-04-27 12:45 | 56.09480 | 52.72642 | 37692 ft | 410 kts | 240° |
| 2026-04-27 12:46 | 56.07013 | 52.63444 | 37683 ft | 409 kts | 240° |
| 2026-04-27 12:46 | 56.04626 | 52.54475 | 37684 ft | 409 kts | 240° |
| 2026-04-27 12:47 | 56.02200 | 52.45335 | 37681 ft | 408 kts | 240° |
| 2026-04-27 12:47 | 55.99767 | 52.36216 | 37663 ft | 408 kts | 240° |
| 2026-04-27 12:48 | 55.97318 | 52.27107 | 37672 ft | 406 kts | 239° |
| 2026-04-27 12:48 | 55.94924 | 52.18236 | 37677 ft | 406 kts | 239° |
| 2026-04-27 12:49 | 55.92481 | 52.09217 | 37679 ft | 405 kts | 239° |
| 2026-04-27 12:49 | 55.90021 | 52.00187 | 37661 ft | 405 kts | 239° |
| 2026-04-27 12:50 | 55.87562 | 51.91193 | 37673 ft | 404 kts | 239° |
| 2026-04-27 12:50 | 55.85088 | 51.82187 | 37657 ft | 405 kts | 239° |
| 2026-04-27 12:51 | 55.82984 | 51.74555 | 37665 ft | 405 kts | 239° |
| 2026-04-27 12:51 | 55.80495 | 51.65559 | 37651 ft | 405 kts | 239° |
| 2026-04-27 12:52 | 55.77999 | 51.56582 | 37673 ft | 405 kts | 238° |
| 2026-04-27 12:52 | 55.75561 | 51.47825 | 37668 ft | 404 kts | 238° |
| 2026-04-27 12:52 | 55.74042 | 51.43679 | 37643 ft | 396 kts | 226° |
| 2026-04-27 12:53 | 55.69998 | 51.37185 | 37673 ft | 391 kts | 212° |
| 2026-04-27 12:53 | 55.65155 | 51.32876 | 37657 ft | 390 kts | 205° |
| 2026-04-27 12:54 | 55.60224 | 51.28821 | 37660 ft | 391 kts | 205° |
| 2026-04-27 12:54 | 55.55385 | 51.24820 | 37642 ft | 374 kts | 205° |
| 2026-04-27 12:55 | 55.53077 | 51.22905 | 37611 ft | 363 kts | 206° |
| 2026-04-27 12:55 | 55.50795 | 51.21016 | 37653 ft | 361 kts | 205° |
| 2026-04-27 12:55 | 55.46296 | 51.17316 | 37665 ft | 363 kts | 205° |
| 2026-04-27 12:56 | 55.41706 | 51.13534 | 37659 ft | 367 kts | 206° |
| 2026-04-27 12:56 | 55.37333 | 51.08942 | 37668 ft | 372 kts | 222° |
| 2026-04-27 12:57 | 55.34172 | 51.01683 | 37652 ft | 382 kts | 236° |
| 2026-04-27 12:57 | 55.32505 | 50.92692 | 37631 ft | 401 kts | 258° |
| 2026-04-27 12:58 | 55.32544 | 50.87705 | 37649 ft | 414 kts | 270° |
| 2026-04-27 12:58 | 55.33241 | 50.82729 | 37654 ft | 428 kts | 283° |
| 2026-04-27 12:58 | 55.34610 | 50.77991 | 37640 ft | 443 kts | 296° |
| 2026-04-27 12:58 | 55.36632 | 50.73806 | 37646 ft | 458 kts | 310° |
| 2026-04-27 12:59 | 55.39244 | 50.70490 | 37619 ft | 469 kts | 327° |
| 2026-04-27 12:59 | 55.42311 | 50.68384 | 37647 ft | 479 kts | 343° |
| 2026-04-27 12:59 | 55.45639 | 50.67680 | 37640 ft | 486 kts | 357° |
| 2026-04-27 12:59 | 55.49021 | 50.68197 | 37626 ft | 489 kts | 12° |
| 2026-04-27 13:00 | 55.52213 | 50.70191 | 37654 ft | 486 kts | 27° |
| 2026-04-27 13:00 | 55.55237 | 50.72870 | 37633 ft | 486 kts | 29° |
| 2026-04-27 13:00 | 55.61240 | 50.78253 | 37636 ft | 486 kts | 27° |
| 2026-04-27 13:01 | 55.67272 | 50.83656 | 37609 ft | 484 kts | 41° |
| 2026-04-27 13:01 | 55.69594 | 50.87836 | 37664 ft | 471 kts | 60° |
| 2026-04-27 13:01 | 55.71181 | 50.92855 | 37639 ft | 459 kts | 76° |
| 2026-04-27 13:02 | 55.72040 | 50.98219 | 37650 ft | 445 kts | 90° |
| 2026-04-27 13:02 | 55.72196 | 51.03600 | 37642 ft | 430 kts | 104° |
| 2026-04-27 13:02 | 55.71686 | 51.08704 | 37649 ft | 414 kts | 117° |
| 2026-04-27 13:02 | 55.70580 | 51.13337 | 37667 ft | 403 kts | 130° |
| 2026-04-27 13:03 | 55.68975 | 51.17345 | 37663 ft | 395 kts | 141° |
| 2026-04-27 13:03 | 55.66957 | 51.20569 | 37657 ft | 386 kts | 156° |
| 2026-04-27 13:03 | 55.64592 | 51.22510 | 37677 ft | 379 kts | 168° |
| 2026-04-27 13:03 | 55.62013 | 51.23744 | 37665 ft | 379 kts | 174° |
| 2026-04-27 13:04 | 55.56915 | 51.24521 | 37630 ft | 354 kts | 186° |
| 2026-04-27 13:04 | 55.54531 | 51.23966 | 37538 ft | 338 kts | 197° |
| 2026-04-27 13:04 | 55.52377 | 51.22601 | 37623 ft | 323 kts | 203° |
| 2026-04-27 13:05 | 55.50374 | 51.21005 | 37640 ft | 311 kts | 204° |
| 2026-04-27 13:05 | 55.48398 | 51.19346 | 37650 ft | 318 kts | 205° |
| 2026-04-27 13:05 | 55.44335 | 51.15921 | 37671 ft | 333 kts | 205° |
| 2026-04-27 13:06 | 55.42203 | 51.14145 | 37490 ft | 346 kts | 205° |
| 2026-04-27 13:06 | 55.39981 | 51.12301 | 37248 ft | 355 kts | 205° |
| 2026-04-27 13:06 | 55.35525 | 51.08613 | 37273 ft | 356 kts | 205° |
| 2026-04-27 13:07 | 55.30952 | 51.04834 | 37269 ft | 368 kts | 205° |
| 2026-04-27 13:07 | 55.26237 | 51.00949 | 37010 ft | 384 kts | 205° |
| 2026-04-27 13:08 | 55.23792 | 50.98962 | 36775 ft | 386 kts | 204° |
| 2026-04-27 13:08 | 55.21412 | 50.97039 | 36490 ft | 367 kts | 204° |
| 2026-04-27 13:08 | 55.19149 | 50.95214 | 36229 ft | 350 kts | 204° |
| 2026-04-27 13:08 | 55.16941 | 50.93440 | 35962 ft | 348 kts | 204° |
| 2026-04-27 13:09 | 55.14753 | 50.91682 | 35709 ft | 347 kts | 204° |
| 2026-04-27 13:09 | 55.12517 | 50.89885 | 35200 ft | 360 kts | 204° |
| 2026-04-27 13:09 | 55.10199 | 50.88023 | 34601 ft | 373 kts | 204° |
| 2026-04-27 13:09 | 55.07849 | 50.86137 | 33970 ft | 368 kts | 204° |
| 2026-04-27 13:10 | 55.05568 | 50.84307 | 33557 ft | 352 kts | 204° |
| 2026-04-27 13:10 | 55.04113 | 50.83141 | 33292 ft | 343 kts | 204° |
| 2026-04-27 13:10 | 55.02000 | 50.81439 | 33050 ft | 326 kts | 204° |
| 2026-04-27 13:10 | 54.99987 | 50.79816 | 32788 ft | 311 kts | 204° |
| 2026-04-27 13:11 | 54.98068 | 50.78271 | 32523 ft | 299 kts | 204° |
| 2026-04-27 13:11 | 54.96200 | 50.76770 | 32271 ft | 294 kts | 204° |
| 2026-04-27 13:11 | 54.94331 | 50.75273 | 32029 ft | 298 kts | 204° |
| 2026-04-27 13:11 | 54.92409 | 50.73736 | 31706 ft | 311 kts | 204° |
| 2026-04-27 13:12 | 54.90404 | 50.72135 | 31398 ft | 323 kts | 203° |
| 2026-04-27 13:12 | 54.88315 | 50.70469 | 30978 ft | 337 kts | 203° |
| 2026-04-27 13:12 | 54.86192 | 50.68777 | 30573 ft | 344 kts | 204° |
| 2026-04-27 13:12 | 54.84025 | 50.67049 | 30135 ft | 330 kts | 204° |
| 2026-04-27 13:13 | 54.81982 | 50.65420 | 29756 ft | 317 kts | 203° |
| 2026-04-27 13:13 | 54.80024 | 50.63861 | 29386 ft | 304 kts | 203° |
| 2026-04-27 13:13 | 54.78139 | 50.62364 | 29032 ft | 291 kts | 203° |
| 2026-04-27 13:13 | 54.76331 | 50.60931 | 28671 ft | 280 kts | 203° |
| 2026-04-27 13:14 | 54.74590 | 50.59551 | 28327 ft | 270 kts | 203° |
| 2026-04-27 13:14 | 54.72914 | 50.58223 | 28016 ft | 261 kts | 203° |
| 2026-04-27 13:14 | 54.71284 | 50.56934 | 27686 ft | 253 kts | 203° |
| 2026-04-27 13:14 | 54.69692 | 50.55674 | 27379 ft | 253 kts | 203° |
| 2026-04-27 13:15 | 54.68051 | 50.54379 | 27091 ft | 266 kts | 203° |
| 2026-04-27 13:15 | 54.66312 | 50.53008 | 26785 ft | 285 kts | 203° |
| 2026-04-27 13:15 | 54.64454 | 50.51543 | 26424 ft | 303 kts | 203° |
| 2026-04-27 13:15 | 54.62483 | 50.49991 | 26033 ft | 319 kts | 203° |
| 2026-04-27 13:16 | 54.60457 | 50.48395 | 25620 ft | 319 kts | 203° |
| 2026-04-27 13:16 | 54.58477 | 50.46835 | 25233 ft | 314 kts | 203° |
| 2026-04-27 13:16 | 54.56511 | 50.45288 | 24839 ft | 308 kts | 203° |
| 2026-04-27 13:16 | 54.54583 | 50.43774 | 24465 ft | 302 kts | 203° |
| 2026-04-27 13:17 | 54.52686 | 50.42287 | 24098 ft | 297 kts | 203° |
| 2026-04-27 13:17 | 54.50797 | 50.40807 | 23739 ft | 292 kts | 203° |
| 2026-04-27 13:17 | 54.48989 | 50.39392 | 23397 ft | 286 kts | 203° |
| 2026-04-27 13:17 | 54.47188 | 50.37985 | 23032 ft | 283 kts | 203° |
| 2026-04-27 13:18 | 54.45403 | 50.36592 | 22686 ft | 280 kts | 203° |
| 2026-04-27 13:18 | 54.43636 | 50.35214 | 22347 ft | 279 kts | 202° |
| 2026-04-27 13:18 | 54.41840 | 50.33816 | 22009 ft | 289 kts | 202° |
| 2026-04-27 13:18 | 54.39980 | 50.32398 | 21638 ft | 294 kts | 200° |
| 2026-04-27 13:19 | 54.38028 | 50.31338 | 21301 ft | 287 kts | 194° |
| 2026-04-27 13:19 | 54.36106 | 50.30533 | 20952 ft | 281 kts | 194° |
| 2026-04-27 13:19 | 54.34222 | 50.29766 | 20618 ft | 275 kts | 194° |
| 2026-04-27 13:19 | 54.32398 | 50.29025 | 20285 ft | 271 kts | 194° |
| 2026-04-27 13:20 | 54.30582 | 50.28287 | 19944 ft | 266 kts | 194° |
| 2026-04-27 13:20 | 54.28799 | 50.27561 | 19641 ft | 261 kts | 194° |
| 2026-04-27 13:20 | 54.27037 | 50.26842 | 19322 ft | 260 kts | 194° |
| 2026-04-27 13:20 | 54.25281 | 50.26125 | 19006 ft | 259 kts | 193° |
| 2026-04-27 13:21 | 54.23498 | 50.25398 | 18679 ft | 270 kts | 193° |
| 2026-04-27 13:21 | 54.21653 | 50.24645 | 18342 ft | 273 kts | 193° |
| 2026-04-27 13:21 | 54.19818 | 50.23895 | 17989 ft | 268 kts | 193° |
| 2026-04-27 13:21 | 54.18023 | 50.23162 | 17674 ft | 262 kts | 193° |
| 2026-04-27 13:22 | 54.16266 | 50.22444 | 17351 ft | 257 kts | 193° |
| 2026-04-27 13:22 | 54.14544 | 50.21742 | 17036 ft | 252 kts | 193° |
| 2026-04-27 13:22 | 54.12849 | 50.21050 | 16711 ft | 248 kts | 193° |
| 2026-04-27 13:22 | 54.11174 | 50.20368 | 16404 ft | 247 kts | 193° |
| 2026-04-27 13:23 | 54.09500 | 50.19687 | 16087 ft | 247 kts | 192° |
| 2026-04-27 13:23 | 54.07809 | 50.19001 | 15769 ft | 255 kts | 192° |
| 2026-04-27 13:23 | 54.06046 | 50.18286 | 15425 ft | 264 kts | 192° |
| 2026-04-27 13:23 | 54.04264 | 50.17563 | 15081 ft | 262 kts | 192° |
| 2026-04-27 13:24 | 54.02519 | 50.16850 | 14759 ft | 254 kts | 192° |
| 2026-04-27 13:24 | 54.00812 | 50.16162 | 14437 ft | 250 kts | 193° |
| 2026-04-27 13:24 | 53.99138 | 50.15464 | 14103 ft | 246 kts | 191° |
| 2026-04-27 13:24 | 53.97487 | 50.14790 | 13790 ft | 243 kts | 192° |
| 2026-04-27 13:25 | 53.95833 | 50.14113 | 13492 ft | 246 kts | 191° |
| 2026-04-27 13:25 | 53.94168 | 50.13457 | 13162 ft | 248 kts | 192° |
| 2026-04-27 13:25 | 53.92461 | 50.12770 | 12834 ft | 255 kts | 191° |
| 2026-04-27 13:25 | 53.90706 | 50.12061 | 12493 ft | 262 kts | 191° |
| 2026-04-27 13:26 | 53.88948 | 50.11364 | 12177 ft | 258 kts | 191° |
| 2026-04-27 13:26 | 53.87204 | 50.10662 | 11818 ft | 256 kts | 191° |
| 2026-04-27 13:26 | 53.85502 | 50.09988 | 11484 ft | 248 kts | 190° |
| 2026-04-27 13:26 | 53.83836 | 50.09348 | 11167 ft | 245 kts | 191° |
| 2026-04-27 13:27 | 53.82189 | 50.08679 | 10852 ft | 240 kts | 189° |
| 2026-04-27 13:27 | 53.80563 | 50.08044 | 10528 ft | 240 kts | 191° |
| 2026-04-27 13:27 | 53.78945 | 50.07373 | 10247 ft | 237 kts | 191° |
| 2026-04-27 13:27 | 53.77381 | 50.06743 | 10137 ft | 228 kts | 191° |
| 2026-04-27 13:28 | 53.75870 | 50.06159 | 10040 ft | 224 kts | 190° |
| 2026-04-27 13:28 | 53.74375 | 50.05554 | 9891 ft | 215 kts | 191° |
| 2026-04-27 13:28 | 53.72964 | 50.05011 | 9710 ft | 203 kts | 185° |
| 2026-04-27 13:28 | 53.71613 | 50.05338 | 9237 ft | 197 kts | 165° |
| 2026-04-27 13:29 | 53.70371 | 50.05975 | 8998 ft | 174 kts | 166° |
| 2026-04-27 13:29 | 53.69295 | 50.06539 | 8853 ft | 150 kts | 166° |
| 2026-04-27 13:29 | 53.68335 | 50.07055 | 8418 ft | 145 kts | 167° |
| 2026-04-27 13:29 | 53.67379 | 50.07580 | 7851 ft | 147 kts | 167° |
| 2026-04-27 13:30 | 53.66406 | 50.08158 | 7341 ft | 148 kts | 165° |
| 2026-04-27 13:30 | 53.65430 | 50.08729 | 6766 ft | 152 kts | 166° |
| 2026-04-27 13:30 | 53.64467 | 50.09321 | 6272 ft | 147 kts | 167° |
| 2026-04-27 13:30 | 53.63496 | 50.09852 | 5644 ft | 147 kts | 168° |
| 2026-04-27 13:31 | 53.62522 | 50.10462 | 5003 ft | 149 kts | 167° |
| 2026-04-27 13:31 | 53.61564 | 50.11064 | 4382 ft | 149 kts | 168° |
| 2026-04-27 13:31 | 53.60577 | 50.11662 | 3782 ft | 152 kts | 169° |
| 2026-04-27 13:31 | 53.59582 | 50.12255 | 3196 ft | 151 kts | 171° |
| 2026-04-27 13:32 | 53.58579 | 50.12848 | 2674 ft | 151 kts | 171° |
| 2026-04-27 13:32 | 53.57609 | 50.13433 | 2241 ft | 148 kts | 169° |
| 2026-04-27 13:32 | 53.56630 | 50.14009 | 1868 ft | 154 kts | 169° |
| 2026-04-27 13:32 | 53.55606 | 50.14597 | 1440 ft | 154 kts | 166° |
| 2026-04-27 13:33 | 53.54609 | 50.15191 | 992 ft | 148 kts | 165° |
| 2026-04-27 13:33 | 53.53707 | 50.15739 | 809 ft | 133 kts | 167° |
| 2026-04-27 13:33 | 53.52827 | 50.16275 | 668 ft | 138 kts | 166° |
| 2026-04-27 13:33 | 53.51918 | 50.16814 | 491 ft | 135 kts | 165° |
| 2026-04-27 13:34 | 53.51096 | 50.17292 | 439 ft | 110 kts | 159° |
| 2026-04-27 13:34 | 53.50518 | 50.17643 | 435 ft | 67 kts | 161° |
| 2026-04-27 13:34 | 53.50221 | 50.17820 | 439 ft | 24 kts | 160° |
| 2026-04-27 13:34 | 53.50177 | 50.17846 | 436 ft | 0 kts | 160° |
| 2026-04-27 13:35 | 53.50161 | 50.17856 | 434 ft | 10 kts | 160° |
| 2026-04-27 13:35 | 53.50040 | 50.17927 | 434 ft | 27 kts | 161° |
| 2026-04-27 13:35 | 53.49814 | 50.18062 | 433 ft | 41 kts | 161° |
| 2026-04-27 13:35 | 53.49623 | 50.18177 | 436 ft | 18 kts | 160° |
| 2026-04-27 13:36 | 53.49508 | 50.18246 | 440 ft | 17 kts | 160° |
| 2026-04-27 13:36 | 53.49416 | 50.18300 | 433 ft | 9 kts | 161° |
| 2026-04-27 13:36 | 53.49354 | 50.18310 | 443 ft | 9 kts | 192° |
| 2026-04-27 13:36 | 53.49306 | 50.18252 | 433 ft | 9 kts | 235° |
| 2026-04-27 13:37 | 53.49283 | 50.18160 | 445 ft | 8 kts | 253° |
| 2026-04-27 13:37 | 53.49278 | 50.18064 | 446 ft | 8 kts | 278° |
| 2026-04-27 13:37 | 53.49301 | 50.17978 | 435 ft | 8 kts | 311° |
| 2026-04-27 13:37 | 53.49346 | 50.17923 | 446 ft | 8 kts | 336° |
| 2026-04-27 13:38 | 53.49397 | 50.17890 | 433 ft | 8 kts | 339° |
| 2026-04-27 13:38 | 53.49447 | 50.17861 | 441 ft | 8 kts | 341° |
| 2026-04-27 13:38 | 53.49496 | 50.17832 | 431 ft | 7 kts | 340° |
| 2026-04-27 13:38 | 53.49543 | 50.17804 | 446 ft | 7 kts | 340° |
| 2026-04-27 13:39 | 53.49588 | 50.17777 | 439 ft | 7 kts | 340° |
| 2026-04-27 13:39 | 53.49633 | 50.17750 | 446 ft | 7 kts | 341° |
| 2026-04-27 13:39 | 53.49677 | 50.17724 | 446 ft | 7 kts | 340° |
| 2026-04-27 13:39 | 53.49719 | 50.17699 | 434 ft | 7 kts | 340° |
| 2026-04-27 13:40 | 53.49762 | 50.17673 | 434 ft | 6 kts | 340° |
| 2026-04-27 13:40 | 53.49803 | 50.17649 | 442 ft | 6 kts | 340° |
| 2026-04-27 13:40 | 53.49844 | 50.17624 | 441 ft | 6 kts | 341° |
| 2026-04-27 13:40 | 53.49887 | 50.17599 | 440 ft | 7 kts | 341° |
| 2026-04-27 13:41 | 53.49933 | 50.17571 | 432 ft | 7 kts | 340° |
| 2026-04-27 13:41 | 53.49978 | 50.17544 | 437 ft | 7 kts | 340° |
| 2026-04-27 13:41 | 53.50033 | 50.17510 | 446 ft | 10 kts | 341° |
| 2026-04-27 13:41 | 53.50108 | 50.17466 | 439 ft | 12 kts | 340° |
| 2026-04-27 13:42 | 53.50187 | 50.17418 | 436 ft | 12 kts | 340° |
| 2026-04-27 13:42 | 53.50265 | 50.17372 | 437 ft | 12 kts | 341° |
| 2026-04-27 13:42 | 53.50341 | 50.17327 | 435 ft | 11 kts | 340° |
| 2026-04-27 13:42 | 53.50414 | 50.17282 | 434 ft | 11 kts | 341° |
| 2026-04-27 13:43 | 53.50485 | 50.17240 | 433 ft | 11 kts | 340° |
| 2026-04-27 13:43 | 53.50555 | 50.17199 | 441 ft | 10 kts | 340° |
| 2026-04-27 13:43 | 53.50622 | 50.17158 | 446 ft | 10 kts | 340° |
| 2026-04-27 13:43 | 53.50687 | 50.17118 | 431 ft | 10 kts | 340° |
| 2026-04-27 13:44 | 53.50751 | 50.17081 | 446 ft | 10 kts | 341° |
| 2026-04-27 13:44 | 53.50813 | 50.17045 | 446 ft | 9 kts | 340° |
| 2026-04-27 13:44 | 53.50873 | 50.17008 | 434 ft | 9 kts | 339° |
| 2026-04-27 13:44 | 53.50932 | 50.16974 | 433 ft | 9 kts | 341° |
| 2026-04-27 13:45 | 53.50990 | 50.16940 | 433 ft | 9 kts | 339° |
| 2026-04-27 13:45 | 53.51045 | 50.16906 | 434 ft | 8 kts | 340° |
| 2026-04-27 13:45 | 53.51099 | 50.16873 | 432 ft | 8 kts | 340° |
| 2026-04-27 13:45 | 53.51152 | 50.16844 | 431 ft | 8 kts | 341° |
| 2026-04-27 13:46 | 53.51202 | 50.16812 | 439 ft | 8 kts | 339° |
| 2026-04-27 13:46 | 53.51252 | 50.16784 | 435 ft | 7 kts | 343° |
| 2026-04-27 13:46 | 53.51300 | 50.16754 | 438 ft | 7 kts | 332° |
| 2026-04-27 13:46 | 53.51323 | 50.16686 | 446 ft | 7 kts | 265° |
| 2026-04-27 13:47 | 53.51305 | 50.16610 | 432 ft | 7 kts | 241° |
| 2026-04-27 13:47 | 53.51281 | 50.16539 | 437 ft | 7 kts | 240° |
| 2026-04-27 13:47 | 53.51259 | 50.16469 | 446 ft | 7 kts | 241° |
| 2026-04-27 13:47 | 53.51236 | 50.16400 | 436 ft | 7 kts | 242° |
| 2026-04-27 13:48 | 53.51215 | 50.16333 | 434 ft | 7 kts | 242° |
| 2026-04-27 13:48 | 53.51193 | 50.16267 | 446 ft | 6 kts | 241° |
| 2026-04-27 13:48 | 53.51173 | 50.16205 | 436 ft | 6 kts | 241° |
| 2026-04-27 13:48 | 53.51152 | 50.16138 | 441 ft | 6 kts | 241° |
| 2026-04-27 13:49 | 53.51132 | 50.16078 | 434 ft | 6 kts | 241° |
| 2026-04-27 13:49 | 53.51112 | 50.16017 | 446 ft | 6 kts | 241° |
| 2026-04-27 13:49 | 53.51102 | 50.15953 | 431 ft | 6 kts | 278° |
| 2026-04-27 13:49 | 53.51127 | 50.15902 | 446 ft | 6 kts | 331° |
| 2026-04-27 13:50 | 53.51149 | 50.15882 | 446 ft | 3 kts | 332° |
| 2026-04-27 13:50 | 53.51155 | 50.15876 | 446 ft | 0 kts | 332° |
| 2026-04-27 13:50 | 53.51156 | 50.15876 | 434 ft | 0 kts | 332° |